HLKF

Details ICAO HLKF (AKF)
Name KUFRA
Region Libya
Timezone Africa/Tripoli (UTC+2.0)
Plans Departing 4
Arriving 17
Stats Elevation 1,367 ft / 417 m (AMSL)
Location 24.178815° 23.313987°
Runways 2
Magnetic Variation 3.291° E
Sunrise 2017-04-25 03:57:49 UTC / 2017-04-25 05:57:49 Local
Sunset 2017-04-25 16:53:51 UTC / 2017-04-25 18:53:51 Local
Advertisement - Login to hide

Runways

ID Width Length Bearing (true) Bearing (mag) Surface Threshold Offset Overrun Length
02L 100 ft / 30 m 12,020 ft / 3,664 m 15.06° 11.77° Asphalt 0 ft / 0 m 0 ft / 0 m
02R 148 ft / 45 m 12,017 ft / 3,663 m 15.10° 11.81° Asphalt 0 ft / 0 m 837 ft / 255 m
20L 148 ft / 45 m 12,017 ft / 3,663 m 195.10° 191.81° Asphalt 0 ft / 0 m 837 ft / 255 m
20R 100 ft / 30 m 12,020 ft / 3,664 m 195.06° 191.77° Asphalt 0 ft / 0 m 0 ft / 0 m

Map

Weather

Temperature
Clouds and Precipitation
Forecast for 2017-04-25 06:00 UTC. Updated an hour ago
Winds

METAR

Not found

TAF

TAF HLKF 241700Z 2418/2518 07010KT 8000 NSC

Frequencies

Tower 121.90 MHz TWR
Warning: Do not use this data for real-world aviation or navigation. No guarantee of current accuracy is given.